createdAt,value
2023-01-23T00:00:10.633Z,415.69
2023-01-23T00:00:22.629Z,415.66
2023-01-23T00:00:34.608Z,415.61
2023-01-23T00:00:45.617Z,415.58
2023-01-23T00:00:57.609Z,415.57
2023-01-23T00:01:09.617Z,415.52
2023-01-23T00:01:20.623Z,415.47
2023-01-23T00:01:32.631Z,415.41
2023-01-23T00:01:44.604Z,415.40
2023-01-23T00:01:55.615Z,415.36
2023-01-23T00:02:06.672Z,415.37
2023-01-23T00:02:17.638Z,415.34
2023-01-23T00:02:28.610Z,415.32
2023-01-23T00:02:39.626Z,415.34
2023-01-23T00:02:50.668Z,415.39
2023-01-23T00:03:02.655Z,415.44
2023-01-23T00:03:14.653Z,415.43
2023-01-23T00:03:26.641Z,415.45
2023-01-23T00:03:38.624Z,415.44
2023-01-23T00:03:50.720Z,415.46
2023-01-23T00:04:02.635Z,415.47
2023-01-23T00:04:14.651Z,415.48
2023-01-23T00:04:25.653Z,415.51
2023-01-23T00:04:36.599Z,415.51
2023-01-23T00:04:47.615Z,415.54
2023-01-23T00:04:58.577Z,415.54
2023-01-23T00:05:09.588Z,415.56
2023-01-23T00:05:20.602Z,415.57
2023-01-23T00:05:31.633Z,415.55
2023-01-23T00:05:43.608Z,415.50
2023-01-23T00:05:54.619Z,415.45
2023-01-23T00:06:06.663Z,415.46
2023-01-23T00:06:18.640Z,415.49
2023-01-23T00:06:30.625Z,415.50
2023-01-23T00:06:42.597Z,415.53
2023-01-23T00:06:53.600Z,415.58
2023-01-23T00:07:04.614Z,415.55
2023-01-23T00:07:16.607Z,415.51
2023-01-23T00:07:27.635Z,415.52
2023-01-23T00:07:39.598Z,415.52
2023-01-23T00:07:50.600Z,415.50
2023-01-23T00:08:01.614Z,415.47
2023-01-23T00:08:12.633Z,415.47
2023-01-23T00:08:24.631Z,415.45
2023-01-23T00:08:36.615Z,415.43
2023-01-23T00:08:48.595Z,415.44
2023-01-23T00:08:59.608Z,415.45
2023-01-23T00:09:10.620Z,415.47
2023-01-23T00:09:22.604Z,415.46
2023-01-23T00:09:33.622Z,415.43
2023-01-23T00:09:44.618Z,415.47
2023-01-23T00:09:55.629Z,415.54
2023-01-23T00:10:07.610Z,415.58
2023-01-23T00:10:19.049Z,415.58
2023-01-23T00:10:29.639Z,415.57
2023-01-23T00:10:40.604Z,415.56
2023-01-23T00:10:51.614Z,415.56
2023-01-23T00:11:02.627Z,415.56
2023-01-23T00:11:14.608Z,415.59
2023-01-23T00:11:25.620Z,415.60
2023-01-23T00:11:37.692Z,415.61
2023-01-23T00:11:48.594Z,415.59
2023-01-23T00:11:59.601Z,415.63
2023-01-23T00:12:10.608Z,415.64
2023-01-23T00:12:21.612Z,415.68
2023-01-23T00:12:33.604Z,415.69
2023-01-23T00:12:44.621Z,415.73
2023-01-23T00:12:56.601Z,415.74
2023-01-23T00:13:07.616Z,415.74
2023-01-23T00:13:18.621Z,415.70
2023-01-23T00:13:30.614Z,415.71
2023-01-23T00:13:41.633Z,415.81
2023-01-23T00:13:53.636Z,415.88
2023-01-23T00:14:05.624Z,415.90
2023-01-23T00:14:17.612Z,415.87
2023-01-23T00:14:28.627Z,415.83
2023-01-23T00:14:40.610Z,415.91
2023-01-23T00:14:52.617Z,416.00
2023-01-23T00:15:05.904Z,416.04
2023-01-23T00:15:14.604Z,416.06
2023-01-23T00:15:25.608Z,416.01
2023-01-23T00:15:36.653Z,416.01
2023-01-23T00:15:48.682Z,416.05
2023-01-23T00:16:00.721Z,416.13
2023-01-23T00:16:11.690Z,416.17
2023-01-23T00:16:22.632Z,416.14
2023-01-23T00:16:33.598Z,416.11
2023-01-23T00:16:44.608Z,416.08
2023-01-23T00:16:55.624Z,416.14
2023-01-23T00:17:07.598Z,416.12
2023-01-23T00:17:18.610Z,416.10
2023-01-23T00:17:29.611Z,415.97
2023-01-23T00:17:40.618Z,415.99
2023-01-23T00:17:51.628Z,416.03
2023-01-23T00:18:03.603Z,415.96
2023-01-23T00:18:14.616Z,415.87
2023-01-23T00:18:26.593Z,415.82
2023-01-23T00:18:37.603Z,415.88
2023-01-23T00:18:48.577Z,415.81
2023-01-23T00:18:59.587Z,415.77
2023-01-23T00:19:10.601Z,415.80
2023-01-23T00:19:21.608Z,415.79
2023-01-23T00:19:33.600Z,415.76
2023-01-23T00:19:44.609Z,415.70
2023-01-23T00:19:55.620Z,415.66
2023-01-23T00:20:06.600Z,415.66
2023-01-23T00:20:17.924Z,415.68
2023-01-23T00:20:29.603Z,415.68
2023-01-23T00:20:40.607Z,415.68
2023-01-23T00:20:51.613Z,415.70
2023-01-23T00:21:02.628Z,415.68
2023-01-23T00:21:14.604Z,415.62
2023-01-23T00:21:25.609Z,415.65
2023-01-23T00:21:36.647Z,415.66
2023-01-23T00:21:48.645Z,415.62
2023-01-23T00:22:00.648Z,415.63
2023-01-23T00:22:14.296Z,415.59
2023-01-23T00:22:24.647Z,415.52
2023-01-23T00:22:36.633Z,415.48
2023-01-23T00:22:48.610Z,415.51
2023-01-23T00:23:00.603Z,415.45
2023-01-23T00:23:11.609Z,415.44
2023-01-23T00:23:22.621Z,415.44
2023-01-23T00:23:34.611Z,415.50
2023-01-23T00:23:45.628Z,415.52
2023-01-23T00:23:57.622Z,415.52
2023-01-23T00:24:09.598Z,415.55
2023-01-23T00:24:20.600Z,415.62
2023-01-23T00:24:31.613Z,415.60
2023-01-23T00:24:42.614Z,415.57
2023-01-23T00:24:53.623Z,415.56
2023-01-23T00:25:05.599Z,415.61
2023-01-23T00:25:17.615Z,415.59
2023-01-23T00:25:28.607Z,415.60
2023-01-23T00:25:40.583Z,415.62
2023-01-23T00:25:51.606Z,415.62
2023-01-23T00:26:02.622Z,415.62
2023-01-23T00:26:13.614Z,415.66
2023-01-23T00:26:25.596Z,415.71
2023-01-23T00:26:36.621Z,415.70
2023-01-23T00:26:47.720Z,415.70
2023-01-23T00:26:58.623Z,415.76
2023-01-23T00:27:09.611Z,415.77
2023-01-23T00:27:20.634Z,415.82
2023-01-23T00:27:32.624Z,415.86
2023-01-23T00:27:44.597Z,415.91
2023-01-23T00:27:55.609Z,415.96
2023-01-23T00:28:07.593Z,416.01
2023-01-23T00:28:19.606Z,416.08
2023-01-23T00:28:30.618Z,416.10
2023-01-23T00:28:42.608Z,416.16
2023-01-23T00:28:53.608Z,416.17
2023-01-23T00:29:04.612Z,416.16
2023-01-23T00:29:16.602Z,416.18
2023-01-23T00:29:27.608Z,416.18
2023-01-23T00:29:38.617Z,416.22
2023-01-23T00:29:49.614Z,416.24
2023-01-23T00:30:00.626Z,416.25
2023-01-23T00:30:12.608Z,416.27
2023-01-23T00:30:24.619Z,416.24
2023-01-23T00:30:35.649Z,416.24
2023-01-23T00:30:47.708Z,416.23
2023-01-23T00:30:59.672Z,416.19
2023-01-23T00:31:10.707Z,416.15
2023-01-23T00:31:21.692Z,416.14
2023-01-23T00:31:33.842Z,416.12
2023-01-23T00:31:44.848Z,416.05
2023-01-23T00:31:55.667Z,416.06
2023-01-23T00:32:06.640Z,416.06
2023-01-23T00:32:17.575Z,416.10
2023-01-23T00:32:28.590Z,416.09
2023-01-23T00:32:39.601Z,416.08
2023-01-23T00:32:50.611Z,416.13
2023-01-23T00:33:01.620Z,416.10
2023-01-23T00:33:13.612Z,416.11
2023-01-23T00:33:24.628Z,416.09
2023-01-23T00:33:36.615Z,416.03
2023-01-23T00:33:47.623Z,415.96
2023-01-23T00:33:59.600Z,415.95
2023-01-23T00:34:10.606Z,416.03
2023-01-23T00:34:21.615Z,416.00
2023-01-23T00:34:33.626Z,415.95
2023-01-23T00:34:44.621Z,415.91
2023-01-23T00:34:56.592Z,415.82
2023-01-23T00:35:07.615Z,415.80
2023-01-23T00:35:19.592Z,415.76
2023-01-23T00:35:31.593Z,415.71
2023-01-23T00:35:42.617Z,415.72
2023-01-23T00:35:53.624Z,415.66
2023-01-23T00:36:04.622Z,415.68
2023-01-23T00:36:16.638Z,415.61
2023-01-23T00:36:28.619Z,415.63
2023-01-23T00:36:39.619Z,415.59
2023-01-23T00:36:51.593Z,415.56
2023-01-23T00:37:02.593Z,415.59
2023-01-23T00:37:13.592Z,415.58
2023-01-23T00:37:24.607Z,415.52
2023-01-23T00:37:35.625Z,415.48
2023-01-23T00:37:47.615Z,415.45
2023-01-23T00:37:58.630Z,415.45
2023-01-23T00:38:10.667Z,415.45
2023-01-23T00:38:21.672Z,415.43
2023-01-23T00:38:32.579Z,415.38
2023-01-23T00:38:43.596Z,415.35
2023-01-23T00:38:54.598Z,415.35
2023-01-23T00:39:05.597Z,415.39
2023-01-23T00:39:17.629Z,415.39
2023-01-23T00:39:28.579Z,415.37
2023-01-23T00:39:39.580Z,415.34
2023-01-23T00:39:50.607Z,415.36
2023-01-23T00:40:01.623Z,415.36
2023-01-23T00:40:12.623Z,415.34
2023-01-23T00:40:23.635Z,415.33
2023-01-23T00:40:35.614Z,415.29
2023-01-23T00:40:47.597Z,415.25
2023-01-23T00:40:58.600Z,415.24
2023-01-23T00:41:09.608Z,415.19
2023-01-23T00:41:20.608Z,415.17
2023-01-23T00:41:31.665Z,415.14
2023-01-23T00:41:43.636Z,415.12
2023-01-23T00:41:55.695Z,415.09
2023-01-23T00:42:06.601Z,415.05
2023-01-23T00:42:17.625Z,415.03
2023-01-23T00:42:28.631Z,414.99
2023-01-23T00:42:40.604Z,415.00
2023-01-23T00:42:52.599Z,414.97
2023-01-23T00:43:03.605Z,414.97
2023-01-23T00:43:14.616Z,414.95
2023-01-23T00:43:25.621Z,414.93
2023-01-23T00:43:37.592Z,414.87
2023-01-23T00:43:48.634Z,414.87
2023-01-23T00:44:00.624Z,414.90
2023-01-23T00:44:12.602Z,414.84
2023-01-23T00:44:23.619Z,414.80
2023-01-23T00:44:34.631Z,414.76
2023-01-23T00:44:46.619Z,414.77
2023-01-23T00:44:57.625Z,414.72
2023-01-23T00:45:09.606Z,414.69
2023-01-23T00:45:20.619Z,414.69
2023-01-23T00:45:32.619Z,414.65
2023-01-23T00:45:43.622Z,414.58
2023-01-23T00:45:54.641Z,414.56
2023-01-23T00:46:06.643Z,414.52
2023-01-23T00:46:18.666Z,414.48
2023-01-23T00:46:29.779Z,414.48
2023-01-23T00:46:40.624Z,414.49
2023-01-23T00:46:51.569Z,414.49
2023-01-23T00:47:02.569Z,414.51
2023-01-23T00:47:13.579Z,414.47
2023-01-23T00:47:24.617Z,414.51
2023-01-23T00:47:36.602Z,414.51
2023-01-23T00:47:47.610Z,414.51
2023-01-23T00:47:58.618Z,414.51
2023-01-23T00:48:09.623Z,414.50
2023-01-23T00:48:20.622Z,414.49
2023-01-23T00:48:32.603Z,414.48
2023-01-23T00:48:43.613Z,414.50
2023-01-23T00:48:54.627Z,414.48
2023-01-23T00:49:06.607Z,414.49
2023-01-23T00:49:18.597Z,414.47
2023-01-23T00:49:29.617Z,414.47
2023-01-23T00:49:41.601Z,414.47
2023-01-23T00:49:52.605Z,414.44
2023-01-23T00:50:03.621Z,414.48
2023-01-23T00:50:14.622Z,414.46
2023-01-23T00:50:26.604Z,414.42
2023-01-23T00:50:38.593Z,414.47
2023-01-23T00:50:49.659Z,414.50
2023-01-23T00:51:00.646Z,414.55
2023-01-23T00:51:12.679Z,414.58
2023-01-23T00:51:23.652Z,414.55
2023-01-23T00:51:34.572Z,414.59
2023-01-23T00:51:45.625Z,414.58
2023-01-23T00:51:57.608Z,414.58
2023-01-23T00:52:09.599Z,414.63
2023-01-23T00:52:20.618Z,414.66
2023-01-23T00:52:32.600Z,414.69
2023-01-23T00:52:44.622Z,414.72
2023-01-23T00:52:56.618Z,414.69
2023-01-23T00:53:07.626Z,414.67
2023-01-23T00:53:19.603Z,414.63
2023-01-23T00:53:30.608Z,414.58
2023-01-23T00:53:41.624Z,414.51
2023-01-23T00:53:53.600Z,414.53
2023-01-23T00:54:04.617Z,414.51
2023-01-23T00:54:15.619Z,414.48
2023-01-23T00:54:27.599Z,414.47
2023-01-23T00:54:38.632Z,414.53
2023-01-23T00:54:50.611Z,414.54
2023-01-23T00:55:01.639Z,414.51
2023-01-23T00:55:13.625Z,414.53
2023-01-23T00:55:25.618Z,414.54
2023-01-23T00:55:37.631Z,414.52
2023-01-23T00:55:49.611Z,414.54
2023-01-23T00:56:01.633Z,414.56
2023-01-23T00:56:13.638Z,414.51
2023-01-23T00:56:25.616Z,414.56
2023-01-23T00:56:37.602Z,414.58
2023-01-23T00:56:48.609Z,414.57
2023-01-23T00:56:59.720Z,414.50
2023-01-23T00:57:10.631Z,414.46
2023-01-23T00:57:22.623Z,414.34
2023-01-23T00:57:33.622Z,414.29
2023-01-23T00:57:45.621Z,414.22
2023-01-23T00:57:57.600Z,414.24
2023-01-23T00:58:09.607Z,414.30
2023-01-23T00:58:20.611Z,414.31
2023-01-23T00:58:31.621Z,414.25
2023-01-23T00:58:45.134Z,414.28
2023-01-23T00:58:54.626Z,414.27
2023-01-23T00:59:06.605Z,414.26
2023-01-23T00:59:17.612Z,414.30
2023-01-23T00:59:28.624Z,414.33
2023-01-23T00:59:39.627Z,414.37
2023-01-23T00:59:51.613Z,414.31
2023-01-23T01:00:02.625Z,414.29
2023-01-23T01:00:14.622Z,414.42
2023-01-23T01:00:26.609Z,414.37
2023-01-23T01:00:37.621Z,414.42
2023-01-23T01:00:49.603Z,414.43
2023-01-23T01:01:00.634Z,414.45
2023-01-23T01:01:12.619Z,414.42
2023-01-23T01:01:23.675Z,414.34
2023-01-23T01:01:34.652Z,414.33
2023-01-23T01:01:46.683Z,414.32
2023-01-23T01:01:58.728Z,414.24
2023-01-23T01:02:10.628Z,414.25
2023-01-23T01:02:21.593Z,414.21
2023-01-23T01:02:32.627Z,414.08
2023-01-23T01:02:43.597Z,414.00
2023-01-23T01:02:54.666Z,414.00
2023-01-23T01:03:05.674Z,413.92
2023-01-23T01:03:16.609Z,413.89
2023-01-23T01:03:27.613Z,413.91
2023-01-23T01:03:39.643Z,413.90
2023-01-23T01:03:51.608Z,413.88
2023-01-23T01:04:02.622Z,413.88
2023-01-23T01:04:14.613Z,413.88
2023-01-23T01:04:25.620Z,413.89
2023-01-23T01:04:36.611Z,413.88
2023-01-23T01:04:48.602Z,413.82
2023-01-23T01:04:59.624Z,413.73
2023-01-23T01:05:10.599Z,413.66
2023-01-23T01:05:21.600Z,413.73
2023-01-23T01:05:32.623Z,413.79
2023-01-23T01:05:44.598Z,413.71
2023-01-23T01:05:55.617Z,413.68
2023-01-23T01:06:06.626Z,413.65
2023-01-23T01:06:17.624Z,413.69
2023-01-23T01:06:29.604Z,413.68
2023-01-23T01:06:40.606Z,413.67
2023-01-23T01:06:51.603Z,413.65
2023-01-23T01:07:02.624Z,413.65
2023-01-23T01:07:14.605Z,413.67
2023-01-23T01:07:25.620Z,413.71
2023-01-23T01:07:37.598Z,413.78
2023-01-23T01:07:48.618Z,413.79
2023-01-23T01:07:59.624Z,413.83
2023-01-23T01:08:11.635Z,413.83
2023-01-23T01:08:23.613Z,413.88
2023-01-23T01:08:34.640Z,413.74
2023-01-23T01:08:46.623Z,413.68
2023-01-23T01:08:57.629Z,413.78
2023-01-23T01:09:09.603Z,413.75
2023-01-23T01:09:20.611Z,413.80
2023-01-23T01:09:31.622Z,413.78
2023-01-23T01:09:43.602Z,413.82
2023-01-23T01:09:54.590Z,413.83
2023-01-23T01:10:05.617Z,413.80
2023-01-23T01:10:16.643Z,413.84
2023-01-23T01:10:28.616Z,413.88
2023-01-23T01:10:39.631Z,413.92
2023-01-23T01:10:51.611Z,413.93
2023-01-23T01:11:02.638Z,413.93
2023-01-23T01:11:14.635Z,413.95
2023-01-23T01:11:26.633Z,414.01
2023-01-23T01:11:37.641Z,414.07
2023-01-23T01:11:49.615Z,414.05
2023-01-23T01:12:00.629Z,413.97
2023-01-23T01:12:12.697Z,413.91
2023-01-23T01:12:23.606Z,414.00
2023-01-23T01:12:34.610Z,414.05
2023-01-23T01:12:45.610Z,414.05
2023-01-23T01:12:57.670Z,414.03
2023-01-23T01:13:09.641Z,414.04
2023-01-23T01:13:21.625Z,414.04
2023-01-23T01:13:33.603Z,414.02
2023-01-23T01:13:44.621Z,414.02
2023-01-23T01:13:56.635Z,413.98
2023-01-23T01:14:08.607Z,413.89
2023-01-23T01:14:19.621Z,413.86
2023-01-23T01:14:31.609Z,413.85
2023-01-23T01:14:42.618Z,413.82
2023-01-23T01:14:54.589Z,413.79
2023-01-23T01:15:05.601Z,413.78
2023-01-23T01:15:16.617Z,413.67
2023-01-23T01:15:27.677Z,413.69
2023-01-23T01:15:38.581Z,413.70
2023-01-23T01:15:49.697Z,413.75
2023-01-23T01:16:00.659Z,413.74
2023-01-23T01:16:11.805Z,413.67
2023-01-23T01:16:23.696Z,413.63
2023-01-23T01:16:35.652Z,413.59
2023-01-23T01:16:46.610Z,413.56
2023-01-23T01:16:57.613Z,413.51
2023-01-23T01:17:08.620Z,413.42
2023-01-23T01:17:20.597Z,413.36
2023-01-23T01:17:31.597Z,413.35
2023-01-23T01:17:42.607Z,413.34
2023-01-23T01:17:53.613Z,413.29
2023-01-23T01:18:04.629Z,413.30
2023-01-23T01:18:16.603Z,413.33
2023-01-23T01:18:27.606Z,413.35
2023-01-23T01:18:38.599Z,413.34
2023-01-23T01:18:49.623Z,413.37
2023-01-23T01:19:01.631Z,413.28
2023-01-23T01:19:13.640Z,413.38
2023-01-23T01:19:25.619Z,413.34
2023-01-23T01:19:37.623Z,413.23
2023-01-23T01:19:49.639Z,413.29
2023-01-23T01:20:01.623Z,413.27
2023-01-23T01:20:12.624Z,413.28
2023-01-23T01:20:24.605Z,413.27
2023-01-23T01:20:35.620Z,413.25
2023-01-23T01:20:47.626Z,413.19
2023-01-23T01:20:58.637Z,413.19
2023-01-23T01:21:10.638Z,413.24
2023-01-23T01:21:22.629Z,413.23
2023-01-23T01:21:34.610Z,413.19
2023-01-23T01:21:46.598Z,413.19
2023-01-23T01:21:57.601Z,413.19
2023-01-23T01:22:08.628Z,413.19
2023-01-23T01:22:20.605Z,413.17
2023-01-23T01:22:31.621Z,413.13
2023-01-23T01:22:43.607Z,413.12
2023-01-23T01:22:54.606Z,413.16
2023-01-23T01:23:06.595Z,413.14
2023-01-23T01:23:17.600Z,413.06
2023-01-23T01:23:28.602Z,412.96
2023-01-23T01:23:39.615Z,413.04
2023-01-23T01:23:50.614Z,413.14
2023-01-23T01:24:02.613Z,413.16
2023-01-23T01:24:13.618Z,413.12
2023-01-23T01:24:24.626Z,413.04
2023-01-23T01:24:36.613Z,412.96
2023-01-23T01:24:48.610Z,412.97
2023-01-23T01:24:59.625Z,412.98
2023-01-23T01:25:11.605Z,412.90
2023-01-23T01:25:22.610Z,412.93
2023-01-23T01:25:33.628Z,412.90
2023-01-23T01:25:44.640Z,412.77
2023-01-23T01:25:56.616Z,412.78
2023-01-23T01:26:07.620Z,412.71
2023-01-23T01:26:19.632Z,412.71
2023-01-23T01:26:31.610Z,412.79
2023-01-23T01:26:42.631Z,412.87
2023-01-23T01:26:54.603Z,412.87
2023-01-23T01:27:05.619Z,412.79
2023-01-23T01:27:17.706Z,412.76
2023-01-23T01:27:28.604Z,412.82
2023-01-23T01:27:40.629Z,412.72
2023-01-23T01:27:52.615Z,412.79
2023-01-23T01:28:04.601Z,412.76
2023-01-23T01:28:15.616Z,412.74
2023-01-23T01:28:27.613Z,412.71
2023-01-23T01:28:38.626Z,412.71
2023-01-23T01:28:50.625Z,412.71
2023-01-23T01:29:02.620Z,412.68
2023-01-23T01:29:14.596Z,412.58
2023-01-23T01:29:25.607Z,412.55
2023-01-23T01:29:36.633Z,412.60
2023-01-23T01:29:48.631Z,412.53
2023-01-23T01:30:00.653Z,412.46
2023-01-23T01:30:12.649Z,412.41
2023-01-23T01:30:24.644Z,412.38
2023-01-23T01:30:36.672Z,412.48
2023-01-23T01:30:48.590Z,412.48
2023-01-23T01:30:59.684Z,412.49
2023-01-23T01:31:10.775Z,412.53
2023-01-23T01:31:22.719Z,412.61
2023-01-23T01:31:34.758Z,412.62
2023-01-23T01:31:45.709Z,412.64
2023-01-23T01:31:57.626Z,412.67
2023-01-23T01:32:08.635Z,412.62
2023-01-23T01:32:20.612Z,412.67
2023-01-23T01:32:32.637Z,412.76
2023-01-23T01:32:44.619Z,412.74
2023-01-23T01:32:56.605Z,412.90
2023-01-23T01:33:07.621Z,412.80
2023-01-23T01:33:18.631Z,412.69
2023-01-23T01:33:29.631Z,412.72
2023-01-23T01:33:41.619Z,412.82
2023-01-23T01:33:52.630Z,412.87
2023-01-23T01:34:04.615Z,412.90
2023-01-23T01:34:15.619Z,412.94
2023-01-23T01:34:26.600Z,413.03
2023-01-23T01:34:37.615Z,412.99
2023-01-23T01:34:48.636Z,413.05
2023-01-23T01:35:00.622Z,413.06
2023-01-23T01:35:12.606Z,413.16
2023-01-23T01:35:23.620Z,413.21
2023-01-23T01:35:35.634Z,413.19
2023-01-23T01:35:47.612Z,413.22
2023-01-23T01:35:59.628Z,413.25
2023-01-23T01:36:11.609Z,413.34
2023-01-23T01:36:22.624Z,413.34
2023-01-23T01:36:34.614Z,413.31
2023-01-23T01:36:45.628Z,413.32
2023-01-23T01:36:57.605Z,413.24
2023-01-23T01:37:08.623Z,413.20
2023-01-23T01:37:20.624Z,413.17
2023-01-23T01:37:32.601Z,413.22
2023-01-23T01:37:43.642Z,413.24
2023-01-23T01:37:55.624Z,413.20
2023-01-23T01:38:07.610Z,413.18
2023-01-23T01:38:18.630Z,413.17
2023-01-23T01:38:30.602Z,412.97
2023-01-23T01:38:41.603Z,412.94
2023-01-23T01:38:52.631Z,413.03
2023-01-23T01:39:03.592Z,413.04
2023-01-23T01:39:14.606Z,412.92
2023-01-23T01:39:26.596Z,412.86
2023-01-23T01:39:38.619Z,412.76
2023-01-23T01:39:50.611Z,412.78
2023-01-23T01:40:01.622Z,412.76
2023-01-23T01:40:13.611Z,412.69
2023-01-23T01:40:24.617Z,412.74
2023-01-23T01:40:36.615Z,412.70
2023-01-23T01:40:47.616Z,412.65
2023-01-23T01:40:58.629Z,412.60
2023-01-23T01:41:09.634Z,412.58
2023-01-23T01:41:21.619Z,412.56
2023-01-23T01:41:32.634Z,412.52
2023-01-23T01:41:44.615Z,412.52
2023-01-23T01:41:55.636Z,412.45
2023-01-23T01:42:07.618Z,412.41
2023-01-23T01:42:19.707Z,412.47
2023-01-23T01:42:30.611Z,412.46
2023-01-23T01:42:41.627Z,412.50
2023-01-23T01:42:53.635Z,412.41
2023-01-23T01:43:05.627Z,412.40
2023-01-23T01:43:17.606Z,412.35
2023-01-23T01:43:28.621Z,412.33
2023-01-23T01:43:40.630Z,412.20
2023-01-23T01:43:52.615Z,412.22
2023-01-23T01:44:03.644Z,412.32
2023-01-23T01:44:15.629Z,412.33
2023-01-23T01:44:26.630Z,412.25
2023-01-23T01:44:38.616Z,412.19
2023-01-23T01:44:49.631Z,412.20
2023-01-23T01:45:01.608Z,412.23
2023-01-23T01:45:12.627Z,412.23
2023-01-23T01:45:24.604Z,412.20
2023-01-23T01:45:35.608Z,412.08
2023-01-23T01:45:47.598Z,412.08
2023-01-23T01:45:58.618Z,412.10
2023-01-23T01:46:09.674Z,412.13
2023-01-23T01:46:20.664Z,412.19
2023-01-23T01:46:31.607Z,412.13
2023-01-23T01:46:43.667Z,412.11
2023-01-23T01:46:54.659Z,412.02
2023-01-23T01:47:05.608Z,412.02
2023-01-23T01:47:16.645Z,411.92
2023-01-23T01:47:28.638Z,411.86
2023-01-23T01:47:40.603Z,411.78
2023-01-23T01:47:51.618Z,411.78
2023-01-23T01:48:03.598Z,411.87
2023-01-23T01:48:14.619Z,411.84
2023-01-23T01:48:26.597Z,411.85
2023-01-23T01:48:38.607Z,411.85
2023-01-23T01:48:49.617Z,411.87
2023-01-23T01:49:01.599Z,411.76
2023-01-23T01:49:12.619Z,411.74
2023-01-23T01:49:23.637Z,411.82
2023-01-23T01:49:35.620Z,411.92
2023-01-23T01:49:46.626Z,411.85
2023-01-23T01:49:58.607Z,411.91
2023-01-23T01:50:12.175Z,411.77
2023-01-23T01:50:21.758Z,411.67
2023-01-23T01:50:32.591Z,411.64
2023-01-23T01:50:43.606Z,411.70
2023-01-23T01:50:54.640Z,411.72
2023-01-23T01:51:05.650Z,411.66
2023-01-23T01:51:16.625Z,411.61
2023-01-23T01:51:27.663Z,411.62
2023-01-23T01:51:39.639Z,411.65
2023-01-23T01:51:51.611Z,411.54
2023-01-23T01:52:02.645Z,411.41
2023-01-23T01:52:14.610Z,411.30
2023-01-23T01:52:25.620Z,411.31
2023-01-23T01:52:37.596Z,411.31
2023-01-23T01:52:48.615Z,411.32
2023-01-23T01:52:59.620Z,411.28
2023-01-23T01:53:11.614Z,411.32
2023-01-23T01:53:22.621Z,411.30
2023-01-23T01:53:34.607Z,411.27
2023-01-23T01:53:45.625Z,411.20
2023-01-23T01:53:57.607Z,411.15
2023-01-23T01:54:08.598Z,411.19
2023-01-23T01:54:19.609Z,411.22
2023-01-23T01:54:30.613Z,411.18
2023-01-23T01:54:41.651Z,411.15
2023-01-23T01:54:53.641Z,411.10
2023-01-23T01:55:05.628Z,411.08
2023-01-23T01:55:17.611Z,411.01
2023-01-23T01:55:28.623Z,410.93
2023-01-23T01:55:39.633Z,410.92
2023-01-23T01:55:51.601Z,410.92
2023-01-23T01:56:03.599Z,410.89
2023-01-23T01:56:14.615Z,410.83
2023-01-23T01:56:25.631Z,410.76
2023-01-23T01:56:37.668Z,410.80
2023-01-23T01:56:49.664Z,410.85
2023-01-23T01:57:01.669Z,410.80
2023-01-23T01:57:13.654Z,410.70
2023-01-23T01:57:25.737Z,410.65
2023-01-23T01:57:37.623Z,410.58
2023-01-23T01:57:49.605Z,410.52
2023-01-23T01:58:01.604Z,410.41
2023-01-23T01:58:12.612Z,410.36
2023-01-23T01:58:23.622Z,410.34
2023-01-23T01:58:35.609Z,410.31
2023-01-23T01:58:46.622Z,410.29
2023-01-23T01:58:58.616Z,410.26
2023-01-23T01:59:10.594Z,410.26
2023-01-23T01:59:21.614Z,410.20
2023-01-23T01:59:32.636Z,410.22
2023-01-23T01:59:44.604Z,410.19
2023-01-23T01:59:55.608Z,410.16
2023-01-23T02:00:06.622Z,410.15
2023-01-23T02:00:17.912Z,410.11
2023-01-23T02:00:29.668Z,410.08
2023-01-23T02:00:40.623Z,410.07
2023-01-23T02:00:52.693Z,410.08
2023-01-23T02:01:03.660Z,410.05
2023-01-23T02:01:15.642Z,410.05
2023-01-23T02:01:27.620Z,410.13
2023-01-23T02:01:39.643Z,410.19
2023-01-23T02:01:51.669Z,410.15
2023-01-23T02:02:02.654Z,410.09
2023-01-23T02:02:13.655Z,410.03
2023-01-23T02:02:24.633Z,410.02
2023-01-23T02:02:35.569Z,409.99
2023-01-23T02:02:46.584Z,409.96
2023-01-23T02:02:57.596Z,409.92
2023-01-23T02:03:08.615Z,409.90
2023-01-23T02:03:19.619Z,409.92
2023-01-23T02:03:30.630Z,409.89
2023-01-23T02:03:42.619Z,409.90
2023-01-23T02:03:53.622Z,409.84
2023-01-23T02:04:05.603Z,409.77
2023-01-23T02:04:16.610Z,409.76
2023-01-23T02:04:27.638Z,409.80
2023-01-23T02:04:39.647Z,409.75
2023-01-23T02:04:51.642Z,409.71
2023-01-23T02:05:03.624Z,409.75
2023-01-23T02:05:14.631Z,409.82
2023-01-23T02:05:25.626Z,409.86
2023-01-23T02:05:37.615Z,409.89
2023-01-23T02:05:49.606Z,409.90
2023-01-23T02:06:00.621Z,409.88
2023-01-23T02:06:11.627Z,409.92
2023-01-23T02:06:23.618Z,409.98
2023-01-23T02:06:34.641Z,410.07
2023-01-23T02:06:46.615Z,410.09
2023-01-23T02:06:58.599Z,410.12
2023-01-23T02:07:09.617Z,410.12
2023-01-23T02:07:20.631Z,410.10
2023-01-23T02:07:32.628Z,410.04
2023-01-23T02:07:44.599Z,409.99
2023-01-23T02:07:56.605Z,409.89
2023-01-23T02:08:07.617Z,409.85
2023-01-23T02:08:19.603Z,409.87
2023-01-23T02:08:30.601Z,409.89
2023-01-23T02:08:41.613Z,409.85
2023-01-23T02:08:52.638Z,409.82
2023-01-23T02:09:04.623Z,409.82
2023-01-23T02:09:16.594Z,409.78
2023-01-23T02:09:27.601Z,409.76
2023-01-23T02:09:38.629Z,409.74
2023-01-23T02:09:50.601Z,409.70
2023-01-23T02:10:01.646Z,409.71
2023-01-23T02:10:13.620Z,409.68
2023-01-23T02:10:24.620Z,409.66
2023-01-23T02:10:36.616Z,409.63
2023-01-23T02:10:47.620Z,409.64
2023-01-23T02:10:59.610Z,409.76
2023-01-23T02:11:11.612Z,409.75
2023-01-23T02:11:22.625Z,409.69
2023-01-23T02:11:33.630Z,409.62
2023-01-23T02:11:45.604Z,409.55
2023-01-23T02:11:56.596Z,409.56
2023-01-23T02:12:07.622Z,409.56
2023-01-23T02:12:18.628Z,409.64
2023-01-23T02:12:30.699Z,409.65
2023-01-23T02:12:41.612Z,409.63
2023-01-23T02:12:52.626Z,409.63
2023-01-23T02:13:04.609Z,409.64
2023-01-23T02:13:15.613Z,409.71
2023-01-23T02:13:26.615Z,409.70
2023-01-23T02:13:38.593Z,409.63
2023-01-23T02:13:49.625Z,409.70
2023-01-23T02:14:01.591Z,409.71
2023-01-23T02:14:12.598Z,409.64
2023-01-23T02:14:23.606Z,409.59
2023-01-23T02:14:34.625Z,409.63
2023-01-23T02:14:46.673Z,409.57
2023-01-23T02:14:58.609Z,409.54
2023-01-23T02:15:09.633Z,409.52
2023-01-23T02:15:21.594Z,409.54
2023-01-23T02:15:32.579Z,409.55
2023-01-23T02:15:43.605Z,409.59
2023-01-23T02:15:54.627Z,409.56
2023-01-23T02:16:06.677Z,409.59
2023-01-23T02:16:17.638Z,409.65
2023-01-23T02:16:28.633Z,409.67
2023-01-23T02:16:39.708Z,409.63
2023-01-23T02:16:50.626Z,409.62
2023-01-23T02:17:02.682Z,409.59
2023-01-23T02:17:13.615Z,409.56
2023-01-23T02:17:24.621Z,409.61
2023-01-23T02:17:36.652Z,409.66
2023-01-23T02:17:48.656Z,409.70
2023-01-23T02:18:00.648Z,409.72
2023-01-23T02:18:12.626Z,409.70
2023-01-23T02:18:24.603Z,409.65
2023-01-23T02:18:35.616Z,409.69
2023-01-23T02:18:46.628Z,409.66
2023-01-23T02:18:58.623Z,409.65
2023-01-23T02:19:10.606Z,409.65
2023-01-23T02:19:21.608Z,409.60
2023-01-23T02:19:33.595Z,409.57
2023-01-23T02:19:44.604Z,409.51
2023-01-23T02:19:55.613Z,409.50
2023-01-23T02:20:06.623Z,409.43
2023-01-23T02:20:19.064Z,409.40
2023-01-23T02:20:30.625Z,409.37
2023-01-23T02:20:42.610Z,409.44
2023-01-23T02:20:53.622Z,409.46
2023-01-23T02:21:05.594Z,409.43
2023-01-23T02:21:16.613Z,409.44
2023-01-23T02:21:27.623Z,409.40
2023-01-23T02:21:38.596Z,409.37
2023-01-23T02:21:49.617Z,409.40
2023-01-23T02:22:00.614Z,409.38
2023-01-23T02:22:12.610Z,409.36
2023-01-23T02:22:23.626Z,409.36
2023-01-23T02:22:34.633Z,409.41
2023-01-23T02:22:46.615Z,409.37